sensor_id;sensor_type;location;lat;lon;timestamp;pressure;altitude;pressure_sealevel;temperature;humidity
6208;BME280;3137;51.550;7.060;2023-01-27T00:00:27;101965.84;;;3.51;82.88
6208;BME280;3137;51.550;7.060;2023-01-27T00:02:53;101967.53;;;3.55;82.71
6208;BME280;3137;51.550;7.060;2023-01-27T00:05:20;101967.59;;;3.52;82.23
6208;BME280;3137;51.550;7.060;2023-01-27T00:07:47;101972.88;;;3.52;82.05
6208;BME280;3137;51.550;7.060;2023-01-27T00:10:16;101964.00;;;3.54;82.00
6208;BME280;3137;51.550;7.060;2023-01-27T00:12:44;101972.19;;;3.45;81.97
6208;BME280;3137;51.550;7.060;2023-01-27T00:15:31;101976.44;;;3.52;81.35
6208;BME280;3137;51.550;7.060;2023-01-27T00:17:58;101979.97;;;3.51;80.84
6208;BME280;3137;51.550;7.060;2023-01-27T00:20:24;101971.91;;;3.57;81.45
6208;BME280;3137;51.550;7.060;2023-01-27T00:23:21;101972.06;;;3.50;81.46
6208;BME280;3137;51.550;7.060;2023-01-27T00:26:09;101977.41;;;3.48;81.63
6208;BME280;3137;51.550;7.060;2023-01-27T00:28:37;101974.72;;;3.50;81.98
6208;BME280;3137;51.550;7.060;2023-01-27T00:31:05;101972.13;;;3.47;81.68
6208;BME280;3137;51.550;7.060;2023-01-27T00:33:33;101985.50;;;3.40;81.59
6208;BME280;3137;51.550;7.060;2023-01-27T00:36:01;101986.47;;;3.36;82.95
6208;BME280;3137;51.550;7.060;2023-01-27T00:38:30;101982.88;;;3.40;82.74
6208;BME280;3137;51.550;7.060;2023-01-27T00:40:57;101978.50;;;3.38;82.37
6208;BME280;3137;51.550;7.060;2023-01-27T00:43:45;101979.28;;;3.43;81.84
6208;BME280;3137;51.550;7.060;2023-01-27T00:46:13;101977.59;;;3.39;82.20
6208;BME280;3137;51.550;7.060;2023-01-27T00:48:39;101989.81;;;3.45;81.49
6208;BME280;3137;51.550;7.060;2023-01-27T00:51:06;101980.03;;;3.48;81.66
6208;BME280;3137;51.550;7.060;2023-01-27T00:53:32;101983.59;;;3.47;82.12
6208;BME280;3137;51.550;7.060;2023-01-27T00:55:59;101981.94;;;3.41;82.45
6208;BME280;3137;51.550;7.060;2023-01-27T00:58:26;101979.47;;;3.34;82.90
6208;BME280;3137;51.550;7.060;2023-01-27T01:00:57;101977.59;;;3.37;81.95
6208;BME280;3137;51.550;7.060;2023-01-27T01:03:28;101976.00;;;3.30;82.19
6208;BME280;3137;51.550;7.060;2023-01-27T01:05:59;101983.91;;;3.33;82.63
6208;BME280;3137;51.550;7.060;2023-01-27T01:08:27;101990.03;;;3.35;82.92
6208;BME280;3137;51.550;7.060;2023-01-27T01:10:54;101987.53;;;3.28;83.06
6208;BME280;3137;51.550;7.060;2023-01-27T01:13:21;101985.78;;;3.27;82.76
6208;BME280;3137;51.550;7.060;2023-01-27T01:15:48;101986.59;;;3.30;82.85
6208;BME280;3137;51.550;7.060;2023-01-27T01:18:15;101991.97;;;3.27;83.33
6208;BME280;3137;51.550;7.060;2023-01-27T01:20:44;101998.88;;;3.34;82.95
6208;BME280;3137;51.550;7.060;2023-01-27T01:23:12;101998.94;;;3.31;82.35
6208;BME280;3137;51.550;7.060;2023-01-27T01:25:39;101989.22;;;3.32;83.23
6208;BME280;3137;51.550;7.060;2023-01-27T01:28:06;102007.81;;;3.29;82.70
6208;BME280;3137;51.550;7.060;2023-01-27T01:30:34;102000.81;;;3.26;82.67
6208;BME280;3137;51.550;7.060;2023-01-27T01:33:01;102020.31;;;3.22;83.40
6208;BME280;3137;51.550;7.060;2023-01-27T01:35:28;102008.88;;;3.20;83.18
6208;BME280;3137;51.550;7.060;2023-01-27T01:37:54;102016.78;;;3.22;83.44
6208;BME280;3137;51.550;7.060;2023-01-27T01:40:21;102013.28;;;3.21;82.98
6208;BME280;3137;51.550;7.060;2023-01-27T01:42:56;102024.81;;;3.17;83.68
6208;BME280;3137;51.550;7.060;2023-01-27T01:48:06;102019.50;;;3.18;82.95
6208;BME280;3137;51.550;7.060;2023-01-27T01:50:35;102028.25;;;3.22;83.14
6208;BME280;3137;51.550;7.060;2023-01-27T01:53:05;102030.28;;;3.08;83.94
6208;BME280;3137;51.550;7.060;2023-01-27T01:55:33;102034.91;;;2.96;83.24
6208;BME280;3137;51.550;7.060;2023-01-27T01:58:02;102038.66;;;2.85;84.23
6208;BME280;3137;51.550;7.060;2023-01-27T02:00:29;102041.22;;;2.89;84.18
6208;BME280;3137;51.550;7.060;2023-01-27T02:02:56;102045.88;;;2.76;84.14
6208;BME280;3137;51.550;7.060;2023-01-27T02:05:27;102053.88;;;2.73;84.76
6208;BME280;3137;51.550;7.060;2023-01-27T02:08:20;102054.09;;;2.61;84.81
6208;BME280;3137;51.550;7.060;2023-01-27T02:10:49;102048.81;;;2.60;84.70
6208;BME280;3137;51.550;7.060;2023-01-27T02:13:17;102051.44;;;2.61;84.92
6208;BME280;3137;51.550;7.060;2023-01-27T02:15:43;102054.97;;;2.62;84.59
6208;BME280;3137;51.550;7.060;2023-01-27T02:18:10;102054.03;;;2.63;84.33
6208;BME280;3137;51.550;7.060;2023-01-27T02:20:42;102062.97;;;2.59;84.95
6208;BME280;3137;51.550;7.060;2023-01-27T02:26:15;102054.09;;;2.61;84.15
6208;BME280;3137;51.550;7.060;2023-01-27T02:28:43;102055.13;;;2.51;84.57
6208;BME280;3137;51.550;7.060;2023-01-27T02:31:10;102053.31;;;2.54;84.83
6208;BME280;3137;51.550;7.060;2023-01-27T02:33:36;102055.88;;;2.59;84.14
6208;BME280;3137;51.550;7.060;2023-01-27T02:36:12;102056.84;;;2.53;83.88
6208;BME280;3137;51.550;7.060;2023-01-27T02:38:50;102049.88;;;2.49;84.93
6208;BME280;3137;51.550;7.060;2023-01-27T02:41:38;102051.47;;;2.58;85.27
6208;BME280;3137;51.550;7.060;2023-01-27T02:44:06;102055.91;;;2.58;84.74
6208;BME280;3137;51.550;7.060;2023-01-27T02:46:33;102052.41;;;2.55;84.86
6208;BME280;3137;51.550;7.060;2023-01-27T02:49:00;102054.19;;;2.55;84.80
6208;BME280;3137;51.550;7.060;2023-01-27T02:51:27;102047.25;;;2.49;84.81
6208;BME280;3137;51.550;7.060;2023-01-27T02:53:54;102050.63;;;2.56;85.12
6208;BME280;3137;51.550;7.060;2023-01-27T02:56:20;102059.50;;;2.53;85.43
6208;BME280;3137;51.550;7.060;2023-01-27T02:58:47;102055.25;;;2.45;85.46
6208;BME280;3137;51.550;7.060;2023-01-27T03:01:17;102056.91;;;2.50;85.56
6208;BME280;3137;51.550;7.060;2023-01-27T03:03:43;102056.88;;;2.52;85.81
6208;BME280;3137;51.550;7.060;2023-01-27T03:06:17;102057.75;;;2.52;85.82
6208;BME280;3137;51.550;7.060;2023-01-27T03:08:44;102057.69;;;2.55;85.34
6208;BME280;3137;51.550;7.060;2023-01-27T03:11:12;102057.69;;;2.57;86.04
6208;BME280;3137;51.550;7.060;2023-01-27T03:13:39;102060.34;;;2.55;85.79
6208;BME280;3137;51.550;7.060;2023-01-27T03:16:06;102062.97;;;2.57;86.02
6208;BME280;3137;51.550;7.060;2023-01-27T03:18:52;102060.38;;;2.54;85.98
6208;BME280;3137;51.550;7.060;2023-01-27T03:21:21;102060.38;;;2.54;86.39
6208;BME280;3137;51.550;7.060;2023-01-27T03:23:48;102052.47;;;2.52;86.14
6208;BME280;3137;51.550;7.060;2023-01-27T03:26:19;102048.97;;;2.50;86.28
6208;BME280;3137;51.550;7.060;2023-01-27T03:28:50;102058.63;;;2.53;86.51
6208;BME280;3137;51.550;7.060;2023-01-27T03:31:39;102057.03;;;2.44;87.04
6208;BME280;3137;51.550;7.060;2023-01-27T03:34:06;102051.75;;;2.44;87.19
6208;BME280;3137;51.550;7.060;2023-01-27T03:36:39;102047.34;;;2.42;87.65
6208;BME280;3137;51.550;7.060;2023-01-27T03:39:25;102054.41;;;2.41;87.55
6208;BME280;3137;51.550;7.060;2023-01-27T03:42:10;102048.19;;;2.44;87.51
6208;BME280;3137;51.550;7.060;2023-01-27T03:44:55;102048.25;;;2.42;87.38
6208;BME280;3137;51.550;7.060;2023-01-27T03:47:40;102051.75;;;2.41;87.36
6208;BME280;3137;51.550;7.060;2023-01-27T03:50:07;102051.69;;;2.47;87.86
6208;BME280;3137;51.550;7.060;2023-01-27T03:52:39;102051.81;;;2.40;88.02
6208;BME280;3137;51.550;7.060;2023-01-27T03:55:06;102055.25;;;2.43;88.15
6208;BME280;3137;51.550;7.060;2023-01-27T03:57:36;102052.63;;;2.42;88.30
6208;BME280;3137;51.550;7.060;2023-01-27T04:00:03;102047.44;;;2.37;88.35
6208;BME280;3137;51.550;7.060;2023-01-27T04:02:38;102051.75;;;2.43;88.31
6208;BME280;3137;51.550;7.060;2023-01-27T04:05:23;102050.97;;;2.34;88.34
6208;BME280;3137;51.550;7.060;2023-01-27T04:08:08;102043.19;;;2.27;88.72
6208;BME280;3137;51.550;7.060;2023-01-27T04:10:34;102043.97;;;2.32;88.42
6208;BME280;3137;51.550;7.060;2023-01-27T04:13:00;102052.88;;;2.26;88.77
6208;BME280;3137;51.550;7.060;2023-01-27T04:15:27;102047.47;;;2.34;88.38
6208;BME280;3137;51.550;7.060;2023-01-27T04:17:53;102045.75;;;2.31;88.42
6208;BME280;3137;51.550;7.060;2023-01-27T04:20:19;102043.97;;;2.33;89.07
6208;BME280;3137;51.550;7.060;2023-01-27T04:22:46;102047.53;;;2.32;88.84
6208;BME280;3137;51.550;7.060;2023-01-27T04:25:12;102046.59;;;2.35;88.99
6208;BME280;3137;51.550;7.060;2023-01-27T04:27:38;102052.75;;;2.34;88.80
6208;BME280;3137;51.550;7.060;2023-01-27T04:30:06;102044.03;;;2.29;89.03
6208;BME280;3137;51.550;7.060;2023-01-27T04:32:32;102047.53;;;2.29;89.25
6208;BME280;3137;51.550;7.060;2023-01-27T04:34:59;102052.75;;;2.36;88.73
6208;BME280;3137;51.550;7.060;2023-01-27T04:37:25;102049.31;;;2.30;89.21
6208;BME280;3137;51.550;7.060;2023-01-27T04:39:51;102051.03;;;2.31;88.97
6208;BME280;3137;51.550;7.060;2023-01-27T04:42:18;102057.16;;;2.35;89.31
6208;BME280;3137;51.550;7.060;2023-01-27T04:44:44;102062.34;;;2.41;89.24
6208;BME280;3137;51.550;7.060;2023-01-27T04:47:10;102072.13;;;2.36;88.91
6208;BME280;3137;51.550;7.060;2023-01-27T04:49:37;102065.03;;;2.40;88.97
6208;BME280;3137;51.550;7.060;2023-01-27T04:52:03;102064.13;;;2.39;89.26
6208;BME280;3137;51.550;7.060;2023-01-27T04:54:30;102068.41;;;2.48;89.15
6208;BME280;3137;51.550;7.060;2023-01-27T04:56:58;102072.84;;;2.46;89.27
6208;BME280;3137;51.550;7.060;2023-01-27T04:59:25;102071.88;;;2.51;89.66
6208;BME280;3137;51.550;7.060;2023-01-27T05:01:52;102077.13;;;2.53;89.71
6208;BME280;3137;51.550;7.060;2023-01-27T05:04:18;102081.56;;;2.51;89.33
6208;BME280;3137;51.550;7.060;2023-01-27T05:06:44;102078.84;;;2.55;89.57
6208;BME280;3137;51.550;7.060;2023-01-27T05:09:11;102082.22;;;2.65;89.11
6208;BME280;3137;51.550;7.060;2023-01-27T05:11:37;102081.47;;;2.59;89.10
6208;BME280;3137;51.550;7.060;2023-01-27T05:14:03;102081.50;;;2.55;89.32
6208;BME280;3137;51.550;7.060;2023-01-27T05:16:30;102085.81;;;2.61;89.12
6208;BME280;3137;51.550;7.060;2023-01-27T05:18:56;102087.53;;;2.64;88.44
6208;BME280;3137;51.550;7.060;2023-01-27T05:21:24;102078.72;;;2.63;88.89
6208;BME280;3137;51.550;7.060;2023-01-27T05:23:53;102078.63;;;2.68;89.27
6208;BME280;3137;51.550;7.060;2023-01-27T05:26:25;102086.63;;;2.65;88.79
6208;BME280;3137;51.550;7.060;2023-01-27T05:28:53;102089.19;;;2.71;88.70
6208;BME280;3137;51.550;7.060;2023-01-27T05:31:29;102091.78;;;2.74;88.09
6208;BME280;3137;51.550;7.060;2023-01-27T05:33:58;102087.41;;;2.71;89.06
6208;BME280;3137;51.550;7.060;2023-01-27T05:36:25;102079.47;;;2.71;88.75
6208;BME280;3137;51.550;7.060;2023-01-27T05:38:53;102084.72;;;2.73;88.92
6208;BME280;3137;51.550;7.060;2023-01-27T05:41:20;102093.41;;;2.83;88.40
6208;BME280;3137;51.550;7.060;2023-01-27T05:43:51;102083.75;;;2.79;87.94
6208;BME280;3137;51.550;7.060;2023-01-27T05:46:20;102095.22;;;2.77;89.00
6208;BME280;3137;51.550;7.060;2023-01-27T05:48:48;102098.75;;;2.78;88.89
6208;BME280;3137;51.550;7.060;2023-01-27T05:51:17;102102.34;;;2.74;88.38
6208;BME280;3137;51.550;7.060;2023-01-27T05:53:44;102095.22;;;2.77;88.96
6208;BME280;3137;51.550;7.060;2023-01-27T05:56:12;102088.91;;;2.85;88.56
6208;BME280;3137;51.550;7.060;2023-01-27T05:58:39;102090.75;;;2.83;88.18
6208;BME280;3137;51.550;7.060;2023-01-27T06:01:11;102093.47;;;2.78;88.69
6208;BME280;3137;51.550;7.060;2023-01-27T06:03:38;102091.78;;;2.74;88.56
6208;BME280;3137;51.550;7.060;2023-01-27T06:06:05;102090.75;;;2.83;88.20
6208;BME280;3137;51.550;7.060;2023-01-27T06:08:32;102091.56;;;2.86;88.10
6208;BME280;3137;51.550;7.060;2023-01-27T06:10:59;102090.69;;;2.86;88.61
6208;BME280;3137;51.550;7.060;2023-01-27T06:13:25;102090.69;;;2.84;88.14
6208;BME280;3137;51.550;7.060;2023-01-27T06:15:52;102090.63;;;2.89;88.34
6208;BME280;3137;51.550;7.060;2023-01-27T06:18:20;102086.34;;;2.80;88.10
6208;BME280;3137;51.550;7.060;2023-01-27T06:20:47;102085.34;;;2.89;88.63
6208;BME280;3137;51.550;7.060;2023-01-27T06:23:15;102098.69;;;2.83;87.86
6208;BME280;3137;51.550;7.060;2023-01-27T06:25:44;102090.63;;;2.89;88.36
6208;BME280;3137;51.550;7.060;2023-01-27T06:28:11;102095.97;;;2.86;87.76
6208;BME280;3137;51.550;7.060;2023-01-27T06:30:52;102107.34;;;2.92;87.72
6208;BME280;3137;51.550;7.060;2023-01-27T06:33:18;102111.63;;;2.98;87.87
6208;BME280;3137;51.550;7.060;2023-01-27T06:35:45;102114.38;;;2.92;87.57
6208;BME280;3137;51.550;7.060;2023-01-27T06:38:12;102118.78;;;2.93;87.23
6208;BME280;3137;51.550;7.060;2023-01-27T06:40:40;102121.38;;;2.96;87.17
6208;BME280;3137;51.550;7.060;2023-01-27T06:43:10;102126.59;;;2.99;87.33
6208;BME280;3137;51.550;7.060;2023-01-27T06:45:38;102128.44;;;2.97;87.42
6208;BME280;3137;51.550;7.060;2023-01-27T06:48:04;102127.50;;;3.00;87.24
6208;BME280;3137;51.550;7.060;2023-01-27T06:50:31;102122.28;;;2.95;86.72
6208;BME280;3137;51.550;7.060;2023-01-27T06:53:01;102121.38;;;2.96;87.24
6208;BME280;3137;51.550;7.060;2023-01-27T06:55:28;102129.38;;;2.93;87.17
6208;BME280;3137;51.550;7.060;2023-01-27T06:57:55;102130.06;;;3.04;87.14
6208;BME280;3137;51.550;7.060;2023-01-27T07:00:21;102133.59;;;3.02;86.88
6208;BME280;3137;51.550;7.060;2023-01-27T07:02:48;102133.56;;;3.05;86.85
6208;BME280;3137;51.550;7.060;2023-01-27T07:05:15;102143.31;;;3.01;87.00
6208;BME280;3137;51.550;7.060;2023-01-27T07:07:42;102139.72;;;3.05;86.45
6208;BME280;3137;51.550;7.060;2023-01-27T07:10:09;102135.44;;;2.98;86.52
6208;BME280;3137;51.550;7.060;2023-01-27T07:12:35;102146.91;;;2.98;87.24
6208;BME280;3137;51.550;7.060;2023-01-27T07:15:07;102148.66;;;3.00;87.07
6208;BME280;3137;51.550;7.060;2023-01-27T07:17:34;102146.06;;;2.96;87.62
6208;BME280;3137;51.550;7.060;2023-01-27T07:20:02;102144.44;;;2.88;87.02
6208;BME280;3137;51.550;7.060;2023-01-27T07:22:28;102148.69;;;2.98;87.46
6208;BME280;3137;51.550;7.060;2023-01-27T07:24:55;102152.34;;;2.91;87.51
6208;BME280;3137;51.550;7.060;2023-01-27T07:27:24;102155.69;;;3.01;86.92
6208;BME280;3137;51.550;7.060;2023-01-27T07:29:51;102158.41;;;2.97;87.08
6208;BME280;3137;51.550;7.060;2023-01-27T07:32:17;102163.53;;;3.07;87.70
6208;BME280;3137;51.550;7.060;2023-01-27T07:34:44;102157.47;;;3.00;87.46
6208;BME280;3137;51.550;7.060;2023-01-27T07:37:10;102162.81;;;2.97;87.42
6208;BME280;3137;51.550;7.060;2023-01-27T07:39:37;102163.63;;;3.02;87.36
6208;BME280;3137;51.550;7.060;2023-01-27T07:42:04;102167.19;;;2.98;87.39
6208;BME280;3137;51.550;7.060;2023-01-27T07:44:31;102167.19;;;3.00;87.04
6208;BME280;3137;51.550;7.060;2023-01-27T07:46:58;102170.63;;;3.05;88.06
6208;BME280;3137;51.550;7.060;2023-01-27T07:49:25;102172.28;;;3.10;87.80
6208;BME280;3137;51.550;7.060;2023-01-27T07:51:53;102167.78;;;3.15;87.66
6208;BME280;3137;51.550;7.060;2023-01-27T07:54:19;102172.97;;;3.22;87.31
6208;BME280;3137;51.550;7.060;2023-01-27T07:56:45;102174.69;;;3.26;87.47
6208;BME280;3137;51.550;7.060;2023-01-27T07:59:12;102173.75;;;3.27;87.06
6208;BME280;3137;51.550;7.060;2023-01-27T08:01:38;102168.44;;;3.28;86.88
6208;BME280;3137;51.550;7.060;2023-01-27T08:04:06;102177.34;;;3.24;86.46
6208;BME280;3137;51.550;7.060;2023-01-27T08:06:33;102172.06;;;3.23;87.30
6208;BME280;3137;51.550;7.060;2023-01-27T08:08:59;102170.13;;;3.32;86.96
6208;BME280;3137;51.550;7.060;2023-01-27T08:11:25;102171.91;;;3.32;86.41
6208;BME280;3137;51.550;7.060;2023-01-27T08:13:52;102175.38;;;3.35;86.60
6208;BME280;3137;51.550;7.060;2023-01-27T08:16:18;102179.78;;;3.35;86.57
6208;BME280;3137;51.550;7.060;2023-01-27T08:18:45;102181.56;;;3.34;86.56
6208;BME280;3137;51.550;7.060;2023-01-27T08:21:12;102175.25;;;3.41;86.38
6208;BME280;3137;51.550;7.060;2023-01-27T08:23:38;102180.53;;;3.43;86.13
6208;BME280;3137;51.550;7.060;2023-01-27T08:26:05;102177.03;;;3.41;85.88
6208;BME280;3137;51.550;7.060;2023-01-27T08:28:34;102181.41;;;3.42;85.98
6208;BME280;3137;51.550;7.060;2023-01-27T08:31:12;102179.66;;;3.43;86.00
6208;BME280;3137;51.550;7.060;2023-01-27T08:33:39;102182.09;;;3.52;86.15
6208;BME280;3137;51.550;7.060;2023-01-27T08:36:09;102187.41;;;3.52;86.03
6208;BME280;3137;51.550;7.060;2023-01-27T08:38:37;102189.19;;;3.53;85.66
6208;BME280;3137;51.550;7.060;2023-01-27T08:41:15;102190.88;;;3.55;86.16
6208;BME280;3137;51.550;7.060;2023-01-27T08:43:42;102184.63;;;3.59;85.34
6208;BME280;3137;51.550;7.060;2023-01-27T08:46:09;102190.81;;;3.60;85.34
6208;BME280;3137;51.550;7.060;2023-01-27T08:48:36;102188.09;;;3.63;85.28
6208;BME280;3137;51.550;7.060;2023-01-27T08:51:03;102197.72;;;3.67;85.05
6208;BME280;3137;51.550;7.060;2023-01-27T08:53:31;102196.88;;;3.67;84.99
6208;BME280;3137;51.550;7.060;2023-01-27T08:56:02;102203.03;;;3.67;84.93
6208;BME280;3137;51.550;7.060;2023-01-27T08:58:28;102205.63;;;3.69;85.29
6208;BME280;3137;51.550;7.060;2023-01-27T09:00:58;102202.97;;;3.69;84.77
6208;BME280;3137;51.550;7.060;2023-01-27T09:03:25;102204.75;;;3.70;85.26
6208;BME280;3137;51.550;7.060;2023-01-27T09:05:51;102204.75;;;3.70;84.80
6208;BME280;3137;51.550;7.060;2023-01-27T09:08:18;102209.19;;;3.68;85.62
6208;BME280;3137;51.550;7.060;2023-01-27T09:10:44;102216.09;;;3.76;84.79
6208;BME280;3137;51.550;7.060;2023-01-27T09:13:10;102224.06;;;3.76;84.75
6208;BME280;3137;51.550;7.060;2023-01-27T09:15:37;102224.00;;;3.78;85.16
6208;BME280;3137;51.550;7.060;2023-01-27T09:18:04;102222.25;;;3.78;85.29
6208;BME280;3137;51.550;7.060;2023-01-27T09:20:32;102231.22;;;3.70;84.67
6208;BME280;3137;51.550;7.060;2023-01-27T09:22:59;102229.44;;;3.70;84.94
6208;BME280;3137;51.550;7.060;2023-01-27T09:25:26;102231.22;;;3.71;85.36
6208;BME280;3137;51.550;7.060;2023-01-27T09:27:57;102235.50;;;3.78;85.62
6208;BME280;3137;51.550;7.060;2023-01-27T09:30:24;102230.94;;;3.85;84.74
6208;BME280;3137;51.550;7.060;2023-01-27T09:32:51;102238.03;;;3.83;84.79
6208;BME280;3137;51.550;7.060;2023-01-27T09:35:18;102239.88;;;3.79;84.87
6208;BME280;3137;51.550;7.060;2023-01-27T09:37:54;102246.81;;;3.85;84.86
6208;BME280;3137;51.550;7.060;2023-01-27T09:43:13;102257.34;;;3.90;85.06
6208;BME280;3137;51.550;7.060;2023-01-27T09:56:56;102253.91;;;3.86;85.38
6208;BME280;3137;51.550;7.060;2023-01-27T10:02:12;102247.91;;;3.76;84.97
6208;BME280;3137;51.550;7.060;2023-01-27T10:04:48;102249.47;;;3.87;84.74
6208;BME280;3137;51.550;7.060;2023-01-27T10:07:45;102259.22;;;3.83;85.38
6208;BME280;3137;51.550;7.060;2023-01-27T10:22:12;102256.41;;;3.92;84.60
6208;BME280;3137;51.550;7.060;2023-01-27T10:27:47;102255.56;;;3.90;84.64
6208;BME280;3137;51.550;7.060;2023-01-27T10:30:31;102248.59;;;3.86;85.33
6208;BME280;3137;51.550;7.060;2023-01-27T10:33:20;102261.78;;;3.88;84.84
6208;BME280;3137;51.550;7.060;2023-01-27T10:35:57;102258.25;;;3.89;84.79
6208;BME280;3137;51.550;7.060;2023-01-27T10:49:29;102265.97;;;3.99;84.73
6208;BME280;3137;51.550;7.060;2023-01-27T10:52:02;102267.84;;;3.94;84.32
6208;BME280;3137;51.550;7.060;2023-01-27T10:54:34;102268.63;;;3.99;84.34
6208;BME280;3137;51.550;7.060;2023-01-27T10:57:34;102267.69;;;4.02;84.21
6208;BME280;3137;51.550;7.060;2023-01-27T11:03:08;102269.66;;;3.94;83.81
6208;BME280;3137;51.550;7.060;2023-01-27T11:05:45;102270.41;;;3.99;83.66
6208;BME280;3137;51.550;7.060;2023-01-27T11:08:17;102260.66;;;4.02;83.36
6208;BME280;3137;51.550;7.060;2023-01-27T11:10:48;102267.75;;;4.00;83.25
6208;BME280;3137;51.550;7.060;2023-01-27T11:13:35;102248.34;;;4.00;83.71
6208;BME280;3137;51.550;7.060;2023-01-27T11:16:04;102248.22;;;4.04;82.93
6208;BME280;3137;51.550;7.060;2023-01-27T11:18:33;102250.91;;;4.03;82.65
6208;BME280;3137;51.550;7.060;2023-01-27T11:21:04;102241.00;;;4.11;83.02
6208;BME280;3137;51.550;7.060;2023-01-27T11:23:34;102246.28;;;4.13;82.40
6208;BME280;3137;51.550;7.060;2023-01-27T11:29:35;102251.53;;;4.16;81.84
6208;BME280;3137;51.550;7.060;2023-01-27T11:32:29;102249.63;;;4.22;81.34
6208;BME280;3137;51.550;7.060;2023-01-27T11:35:13;102244.25;;;4.25;81.87
6208;BME280;3137;51.550;7.060;2023-01-27T11:37:42;102237.81;;;4.37;81.16
6208;BME280;3137;51.550;7.060;2023-01-27T11:40:15;102234.97;;;4.46;81.28
6208;BME280;3137;51.550;7.060;2023-01-27T11:42:43;102231.44;;;4.46;80.34
6208;BME280;3137;51.550;7.060;2023-01-27T11:45:15;102227.09;;;4.43;80.23
6208;BME280;3137;51.550;7.060;2023-01-27T11:47:43;102229.97;;;4.33;80.59
6208;BME280;3137;51.550;7.060;2023-01-27T11:50:18;102231.75;;;4.31;80.42
6208;BME280;3137;51.550;7.060;2023-01-27T11:53:08;102230.63;;;4.42;80.18
6208;BME280;3137;51.550;7.060;2023-01-27T11:55:39;102231.56;;;4.40;80.38
6208;BME280;3137;51.550;7.060;2023-01-27T11:58:21;102230.59;;;4.45;79.99
6208;BME280;3137;51.550;7.060;2023-01-27T12:00:57;102221.78;;;4.43;79.29
6208;BME280;3137;51.550;7.060;2023-01-27T12:03:42;102225.09;;;4.53;79.35
6208;BME280;3137;51.550;7.060;2023-01-27T12:08:51;102215.34;;;4.55;78.68
6208;BME280;3137;51.550;7.060;2023-01-27T12:11:19;102220.69;;;4.52;78.80
6208;BME280;3137;51.550;7.060;2023-01-27T12:16:16;102218.78;;;4.57;78.35
6208;BME280;3137;51.550;7.060;2023-01-27T12:19:01;102217.84;;;4.61;78.58
6208;BME280;3137;51.550;7.060;2023-01-27T12:21:44;102213.44;;;4.60;78.97
6208;BME280;3137;51.550;7.060;2023-01-27T12:24:24;102220.25;;;4.72;79.05
6208;BME280;3137;51.550;7.060;2023-01-27T12:26:52;102212.94;;;4.82;78.32
6208;BME280;3137;51.550;7.060;2023-01-27T12:29:24;102209.38;;;4.83;78.71
6208;BME280;3137;51.550;7.060;2023-01-27T12:31:53;102210.28;;;4.82;78.01
6208;BME280;3137;51.550;7.060;2023-01-27T12:34:33;102206.88;;;4.77;77.99
6208;BME280;3137;51.550;7.060;2023-01-27T12:37:04;102208.59;;;4.79;78.21
6208;BME280;3137;51.550;7.060;2023-01-27T12:42:04;102202.53;;;4.74;78.18
6208;BME280;3137;51.550;7.060;2023-01-27T12:44:41;102201.56;;;4.77;77.78
6208;BME280;3137;51.550;7.060;2023-01-27T12:47:27;102196.41;;;4.71;77.79
6208;BME280;3137;51.550;7.060;2023-01-27T12:50:18;102192.13;;;4.65;77.65
6208;BME280;3137;51.550;7.060;2023-01-27T12:52:59;102193.09;;;4.61;77.56
6208;BME280;3137;51.550;7.060;2023-01-27T12:55:34;102195.53;;;4.70;76.81
6208;BME280;3137;51.550;7.060;2023-01-27T12:58:02;102192.88;;;4.70;76.43
6208;BME280;3137;51.550;7.060;2023-01-27T13:00:29;102195.41;;;4.75;76.32
6208;BME280;3137;51.550;7.060;2023-01-27T13:03:03;102200.97;;;4.64;76.40
6208;BME280;3137;51.550;7.060;2023-01-27T13:05:35;102199.34;;;4.58;75.27
6208;BME280;3137;51.550;7.060;2023-01-27T13:08:03;102204.66;;;4.57;75.13
6208;BME280;3137;51.550;7.060;2023-01-27T13:10:30;102203.78;;;4.58;74.61
6208;BME280;3137;51.550;7.060;2023-01-27T13:12:57;102203.69;;;4.61;75.22
6208;BME280;3137;51.550;7.060;2023-01-27T13:15:28;102201.88;;;4.63;75.59
6208;BME280;3137;51.550;7.060;2023-01-27T13:17:57;102209.09;;;4.58;74.49
6208;BME280;3137;51.550;7.060;2023-01-27T13:20:39;102206.53;;;4.53;74.74
6208;BME280;3137;51.550;7.060;2023-01-27T13:23:22;102208.38;;;4.50;74.67
6208;BME280;3137;51.550;7.060;2023-01-27T13:28:54;102215.38;;;4.52;74.94
6208;BME280;3137;51.550;7.060;2023-01-27T13:31:34;102214.63;;;4.47;76.37
6208;BME280;3137;51.550;7.060;2023-01-27T13:34:25;102223.41;;;4.49;75.57
6208;BME280;3137;51.550;7.060;2023-01-27T13:39:54;102229.00;;;4.37;75.99
6208;BME280;3137;51.550;7.060;2023-01-27T13:42:35;102220.06;;;4.41;76.29
6208;BME280;3137;51.550;7.060;2023-01-27T13:45:11;102218.31;;;4.40;76.60
6208;BME280;3137;51.550;7.060;2023-01-27T13:47:55;102224.66;;;4.33;76.67
6208;BME280;3137;51.550;7.060;2023-01-27T13:50:29;102234.16;;;4.43;75.96
6208;BME280;3137;51.550;7.060;2023-01-27T13:52:57;102224.38;;;4.45;75.63
6208;BME280;3137;51.550;7.060;2023-01-27T13:55:54;102235.75;;;4.52;75.35
6208;BME280;3137;51.550;7.060;2023-01-27T13:58:36;102236.84;;;4.41;76.52
6208;BME280;3137;51.550;7.060;2023-01-27T14:01:23;102234.28;;;4.38;76.24
6208;BME280;3137;51.550;7.060;2023-01-27T14:04:15;102242.19;;;4.40;77.46
6208;BME280;3137;51.550;7.060;2023-01-27T14:07:01;102242.94;;;4.45;77.64
6208;BME280;3137;51.550;7.060;2023-01-27T14:09:56;102241.34;;;4.38;77.54
6208;BME280;3137;51.550;7.060;2023-01-27T14:15:39;102243.72;;;4.50;77.43
6208;BME280;3137;51.550;7.060;2023-01-27T14:18:45;102243.91;;;4.42;76.84
6208;BME280;3137;51.550;7.060;2023-01-27T14:21:26;102245.81;;;4.36;77.49
6208;BME280;3137;51.550;7.060;2023-01-27T14:27:03;102239.69;;;4.34;77.35
6208;BME280;3137;51.550;7.060;2023-01-27T14:29:50;102248.69;;;4.25;77.65
6208;BME280;3137;51.550;7.060;2023-01-27T14:32:36;102246.78;;;4.32;77.38
6208;BME280;3137;51.550;7.060;2023-01-27T14:35:28;102245.16;;;4.24;77.44
6208;BME280;3137;51.550;7.060;2023-01-27T14:41:09;102250.84;;;4.06;78.25
6208;BME280;3137;51.550;7.060;2023-01-27T14:43:48;102250.81;;;4.08;78.81
6208;BME280;3137;51.550;7.060;2023-01-27T14:46:51;102251.72;;;4.07;78.44
6208;BME280;3137;51.550;7.060;2023-01-27T14:52:00;102264.19;;;4.01;78.90
6208;BME280;3137;51.550;7.060;2023-01-27T14:54:42;102262.44;;;4.00;79.46
6208;BME280;3137;51.550;7.060;2023-01-27T14:57:39;102257.94;;;4.05;78.83
6208;BME280;3137;51.550;7.060;2023-01-27T15:02:57;102258.81;;;4.04;79.41
6208;BME280;3137;51.550;7.060;2023-01-27T15:05:41;102264.13;;;4.04;79.78
6208;BME280;3137;51.550;7.060;2023-01-27T15:08:27;102257.16;;;3.99;78.98